Time;durP1;ratioP1;P1;durP2;ratioP2;P2;SDS_P1;SDS_P2;PMS_P1;PMS_P2;Temp;Humidity;BMP_temperature;BMP_pressure;BME280_temperature;BME280_humidity;BME280_pressure;Samples;Min_cycle;Max_cycle;Signal;HPM_P1;HPM_P2
2023/10/21 00:01:15;;;;;;;3.20;0.68;;;18.60;96.70;;;;;;5093695;28;20044;-80
2023/10/21 00:03:45;;;;;;;3.90;0.60;;;18.60;96.70;;;;;;5068483;28;20040;-80
2023/10/21 00:06:13;;;;;;;4.30;1.05;;;18.60;96.70;;;;;;5094827;28;20055;-80
2023/10/21 00:08:41;;;;;;;3.42;0.55;;;18.60;96.70;;;;;;5071181;28;20090;-79
2023/10/21 00:11:12;;;;;;;3.83;0.65;;;18.60;96.70;;;;;;5090444;28;20077;-80
2023/10/21 00:13:40;;;;;;;4.85;0.70;;;18.50;96.70;;;;;;5082200;28;20065;-80
2023/10/21 00:16:08;;;;;;;2.33;0.77;;;18.60;96.70;;;;;;5083453;28;20485;-80
2023/10/21 00:18:36;;;;;;;2.30;0.45;;;18.60;96.70;;;;;;5084403;28;20056;-80
2023/10/21 00:21:06;;;;;;;3.45;0.65;;;18.50;96.70;;;;;;5083175;28;20067;-80
2023/10/21 00:23:34;;;;;;;3.67;0.70;;;18.50;96.70;;;;;;5083097;28;20097;-80
2023/10/21 00:26:03;;;;;;;4.38;0.60;;;18.50;96.70;;;;;;5082413;28;20451;-79
2023/10/21 00:28:32;;;;;;;3.33;0.88;;;18.50;96.70;;;;;;5083316;28;20466;-80
2023/10/21 00:31:02;;;;;;;3.85;0.50;;;18.40;96.70;;;;;;5085351;28;20567;-80
2023/10/21 00:33:31;;;;;;;3.78;0.77;;;18.40;96.70;;;;;;5085706;28;20409;-80
2023/10/21 00:35:59;;;;;;;5.25;0.93;;;18.40;96.70;;;;;;5089463;28;20040;-80
2023/10/21 00:38:29;;;;;;;2.20;0.50;;;18.30;96.70;;;;;;5094583;28;20040;-80
2023/10/21 00:40:57;;;;;;;2.75;0.80;;;18.30;96.70;;;;;;5071407;28;20060;-80
2023/10/21 00:43:36;;;;;;;3.70;0.80;;;18.30;96.70;;;;;;5090976;28;20035;-80
2023/10/21 00:46:11;;;;;;;4.80;0.90;;;18.20;96.70;;;;;;5086587;28;20064;-80
2023/10/21 00:48:40;;;;;;;2.08;0.43;;;18.20;96.70;;;;;;5081371;28;20047;-83
2023/10/21 00:51:09;;;;;;;4.25;0.45;;;18.20;96.70;;;;;;5074397;28;20040;-81
2023/10/21 00:53:39;;;;;;;4.78;1.08;;;18.20;96.70;;;;;;5075018;28;20059;-80
2023/10/21 00:56:09;;;;;;;4.40;1.17;;;18.20;96.70;;;;;;5088101;28;20139;-80
2023/10/21 00:58:40;;;;;;;3.30;0.88;;;18.20;96.70;;;;;;5057204;28;20044;-81
2023/10/21 01:01:10;;;;;;;4.57;0.60;;;18.20;96.70;;;;;;5067519;28;20058;-80
2023/10/21 01:03:40;;;;;;;7.03;0.80;;;18.20;96.70;;;;;;5091950;28;20044;-80
2023/10/21 01:06:08;;;;;;;5.68;0.90;;;18.20;96.70;;;;;;5106153;27;20040;-80
2023/10/21 01:08:43;;;;;;;2.90;0.60;;;18.20;96.70;;;;;;5082796;28;20051;-81
2023/10/21 01:11:11;;;;;;;5.10;1.10;;;18.20;96.70;;;;;;5082677;28;20474;-80
2023/10/21 01:13:43;;;;;;;5.80;1.05;;;18.10;96.70;;;;;;5084147;28;20047;-80
2023/10/21 01:16:11;;;;;;;6.55;0.68;;;18.10;96.70;;;;;;5083529;28;20056;-81
2023/10/21 01:18:39;;;;;;;5.35;0.85;;;18.10;96.70;;;;;;5098387;28;20036;-81
2023/10/21 01:21:08;;;;;;;3.08;1.08;;;18.00;96.70;;;;;;5102485;28;20055;-80
2023/10/21 01:23:37;;;;;;;4.07;1.02;;;18.10;96.70;;;;;;5093230;28;20054;-80
2023/10/21 01:26:06;;;;;;;3.85;0.55;;;18.10;96.70;;;;;;5092881;28;20039;-81
2023/10/21 01:28:34;;;;;;;4.72;1.17;;;18.10;96.70;;;;;;5079209;28;20101;-79
2023/10/21 01:31:02;;;;;;;4.68;1.00;;;18.00;96.70;;;;;;5094171;28;20425;-81
2023/10/21 01:33:30;;;;;;;2.78;0.65;;;18.00;96.70;;;;;;5103743;28;20515;-79
2023/10/21 01:35:58;;;;;;;2.75;0.75;;;18.10;96.70;;;;;;5093741;28;20055;-80
2023/10/21 01:38:26;;;;;;;2.05;0.60;;;18.00;96.70;;;;;;5085875;28;20491;-81
2023/10/21 01:40:56;;;;;;;2.75;0.60;;;18.10;96.70;;;;;;5066101;28;20051;-80
2023/10/21 01:43:23;;;;;;;4.70;0.55;;;18.00;96.70;;;;;;5089072;28;20600;-79
2023/10/21 01:45:51;;;;;;;7.18;0.77;;;18.00;96.70;;;;;;5093701;28;20044;-81
2023/10/21 01:48:19;;;;;;;3.58;0.52;;;17.90;96.70;;;;;;5075486;28;20036;-79
2023/10/21 01:50:47;;;;;;;3.35;0.43;;;18.00;96.70;;;;;;5089843;28;20048;-81
2023/10/21 01:53:15;;;;;;;3.40;0.57;;;17.90;96.70;;;;;;5089705;28;20075;-80
2023/10/21 01:55:43;;;;;;;5.10;0.50;;;17.90;96.70;;;;;;5089726;28;20048;-80
2023/10/21 01:58:13;;;;;;;6.93;0.68;;;17.90;96.70;;;;;;5095735;28;20051;-80
2023/10/21 02:00:41;;;;;;;4.38;1.02;;;17.80;96.70;;;;;;5086645;28;20124;-79
2023/10/21 02:03:08;;;;;;;2.75;0.73;;;17.80;96.70;;;;;;5070326;28;20044;-80
2023/10/21 02:05:38;;;;;;;7.60;0.80;;;17.80;96.70;;;;;;5094067;28;20048;-80
2023/10/21 02:08:06;;;;;;;1.90;0.47;;;17.80;96.70;;;;;;5095279;28;20041;-80
2023/10/21 02:10:35;;;;;;;5.05;0.52;;;17.80;96.70;;;;;;5087804;27;20040;-79
2023/10/21 02:13:03;;;;;;;1.52;0.70;;;17.80;96.70;;;;;;5095476;28;20471;-80
2023/10/21 02:15:36;;;;;;;3.53;0.70;;;17.80;96.70;;;;;;5090863;28;20043;-80
2023/10/21 02:18:04;;;;;;;2.28;0.38;;;17.90;96.70;;;;;;5073908;28;20142;-79
2023/10/21 02:20:37;;;;;;;3.97;0.63;;;17.80;96.70;;;;;;5084303;28;20044;-79
2023/10/21 02:23:05;;;;;;;6.57;1.58;;;17.90;96.70;;;;;;5082588;28;20646;-79
2023/10/21 02:25:33;;;;;;;3.67;0.52;;;17.80;96.70;;;;;;5071383;28;20048;-80
2023/10/21 02:28:01;;;;;;;2.83;0.50;;;17.80;96.70;;;;;;5093852;28;20444;-80
2023/10/21 02:30:29;;;;;;;1.83;0.47;;;17.80;96.70;;;;;;5087472;28;20544;-80
2023/10/21 02:32:58;;;;;;;3.13;0.60;;;17.80;96.70;;;;;;5076940;28;20113;-80
2023/10/21 02:35:26;;;;;;;1.73;0.20;;;17.70;96.70;;;;;;5095435;28;20044;-80
2023/10/21 02:37:55;;;;;;;4.43;0.57;;;17.70;96.70;;;;;;5076801;28;20401;-80
2023/10/21 02:40:23;;;;;;;3.63;0.65;;;17.70;96.70;;;;;;5072451;28;20047;-79
2023/10/21 02:42:51;;;;;;;4.28;0.57;;;17.70;96.70;;;;;;5079225;28;20152;-80
2023/10/21 02:45:19;;;;;;;0.93;0.30;;;17.70;96.70;;;;;;5091146;28;20067;-80
2023/10/21 02:47:48;;;;;;;5.07;0.80;;;17.60;96.70;;;;;;5070176;28;20046;-81
2023/10/21 02:50:18;;;;;;;5.35;0.80;;;17.70;96.70;;;;;;5093956;28;20048;-80
2023/10/21 02:52:46;;;;;;;7.22;0.77;;;17.70;96.70;;;;;;5085684;28;20059;-80
2023/10/21 02:55:14;;;;;;;4.05;0.68;;;17.70;96.70;;;;;;5088108;28;20122;-80
2023/10/21 02:57:42;;;;;;;3.33;0.70;;;17.70;96.70;;;;;;5085759;28;20040;-80
2023/10/21 03:00:15;;;;;;;1.95;0.60;;;17.70;96.70;;;;;;5085236;28;20142;-80
2023/10/21 03:02:44;;;;;;;3.95;0.70;;;17.70;96.70;;;;;;5094446;28;20497;-80
2023/10/21 03:05:12;;;;;;;2.13;0.52;;;17.70;96.70;;;;;;5088059;28;20090;-80
2023/10/21 03:07:43;;;;;;;3.88;0.70;;;17.60;96.70;;;;;;5082250;28;20141;-80
2023/10/21 03:10:11;;;;;;;2.47;0.55;;;17.60;96.70;;;;;;5092010;28;20178;-80
2023/10/21 03:12:39;;;;;;;2.78;0.63;;;17.70;96.70;;;;;;5082319;28;20051;-80
2023/10/21 03:15:11;;;;;;;7.15;0.73;;;17.70;96.70;;;;;;5098930;28;20051;-80
2023/10/21 03:17:39;;;;;;;6.40;0.90;;;17.70;96.70;;;;;;5071987;28;20497;-81
2023/10/21 03:20:09;;;;;;;3.58;0.60;;;17.60;96.70;;;;;;5077784;28;20054;-80
2023/10/21 03:22:37;;;;;;;5.53;0.80;;;17.50;96.70;;;;;;5090902;28;20127;-81
2023/10/21 03:25:08;;;;;;;4.78;0.68;;;17.50;96.70;;;;;;5068091;28;20040;-80
2023/10/21 03:27:36;;;;;;;2.63;0.50;;;17.50;96.70;;;;;;5085613;28;20032;-79
2023/10/21 03:30:04;;;;;;;5.05;0.40;;;17.40;96.70;;;;;;5101077;28;20043;-81
2023/10/21 03:32:33;;;;;;;3.28;0.52;;;17.40;96.70;;;;;;5086699;28;20052;-80
2023/10/21 03:35:00;;;;;;;7.25;0.88;;;17.40;96.70;;;;;;5085272;28;20054;-80
2023/10/21 03:37:28;;;;;;;5.47;0.77;;;17.40;96.70;;;;;;5084926;28;20056;-80
2023/10/21 03:39:56;;;;;;;5.45;0.80;;;17.40;96.70;;;;;;5086343;28;20040;-81
2023/10/21 03:42:26;;;;;;;4.32;0.70;;;17.40;96.70;;;;;;5090838;28;20048;-80
2023/10/21 03:44:54;;;;;;;7.95;0.95;;;17.40;96.70;;;;;;5093577;28;20781;-80
2023/10/21 03:47:22;;;;;;;3.88;0.65;;;17.40;96.70;;;;;;5084721;28;20047;-81
2023/10/21 03:49:50;;;;;;;3.63;0.80;;;17.40;96.70;;;;;;5083802;28;20040;-82
2023/10/21 03:52:17;;;;;;;3.85;0.57;;;17.40;96.70;;;;;;5088974;28;20044;-80
2023/10/21 03:54:45;;;;;;;3.70;0.70;;;17.40;96.70;;;;;;5092937;28;20056;-80
2023/10/21 03:57:13;;;;;;;4.03;0.50;;;17.40;96.70;;;;;;5095082;28;20039;-81
2023/10/21 03:59:43;;;;;;;3.33;0.57;;;17.40;96.70;;;;;;5090972;28;20032;-81
2023/10/21 04:02:11;;;;;;;4.60;0.80;;;17.40;96.70;;;;;;5089791;28;20504;-80
2023/10/21 04:04:39;;;;;;;2.60;0.88;;;17.40;96.70;;;;;;5095983;28;20040;-80
2023/10/21 04:07:07;;;;;;;2.65;0.98;;;17.30;96.70;;;;;;5094445;28;20040;-80
2023/10/21 04:09:35;;;;;;;3.22;0.68;;;17.30;96.70;;;;;;5095110;28;20032;-81
2023/10/21 04:12:04;;;;;;;4.05;1.33;;;17.40;96.70;;;;;;5092594;28;20726;-78
2023/10/21 04:14:32;;;;;;;3.35;0.52;;;17.30;96.70;;;;;;5089281;28;20042;-80
2023/10/21 04:17:01;;;;;;;2.83;0.57;;;17.40;96.70;;;;;;5075999;28;20168;-81
2023/10/21 04:19:29;;;;;;;3.00;0.70;;;17.40;96.70;;;;;;5091716;28;20946;-79
2023/10/21 04:21:58;;;;;;;2.72;0.80;;;17.40;96.70;;;;;;5088342;28;20505;-80
2023/10/21 04:24:26;;;;;;;3.35;0.50;;;17.30;96.70;;;;;;5085045;28;20039;-78
2023/10/21 04:26:54;;;;;;;3.10;0.60;;;17.30;96.70;;;;;;5090807;28;20055;-79
2023/10/21 04:29:22;;;;;;;5.95;0.70;;;17.40;96.70;;;;;;5084338;28;20123;-79
2023/10/21 04:31:50;;;;;;;4.05;0.95;;;17.40;96.70;;;;;;5095645;28;20092;-79
2023/10/21 04:34:19;;;;;;;2.28;0.60;;;17.50;96.70;;;;;;5086995;28;20051;-79
2023/10/21 04:36:48;;;;;;;2.55;0.70;;;17.50;96.70;;;;;;5093978;28;20117;-79
2023/10/21 04:39:16;;;;;;;5.18;1.17;;;17.50;96.70;;;;;;5084690;28;20097;-80
2023/10/21 04:41:47;;;;;;;4.55;0.63;;;17.50;96.70;;;;;;5088429;28;20048;-80
2023/10/21 04:44:15;;;;;;;4.95;1.05;;;17.60;96.70;;;;;;5088426;28;20121;-79
2023/10/21 04:46:43;;;;;;;3.15;0.80;;;17.60;96.70;;;;;;5092000;28;20050;-79
2023/10/21 04:49:11;;;;;;;2.38;0.75;;;17.60;96.70;;;;;;5093404;28;20043;-80
2023/10/21 04:51:41;;;;;;;4.45;0.75;;;17.60;96.70;;;;;;5093641;28;20044;-79
2023/10/21 04:54:09;;;;;;;4.50;1.10;;;17.60;96.70;;;;;;5067049;28;20060;-80
2023/10/21 04:56:37;;;;;;;3.88;0.70;;;17.70;96.70;;;;;;5070226;28;20140;-80
2023/10/21 04:59:05;;;;;;;4.40;0.68;;;17.70;96.70;;;;;;5097418;28;20135;-79
2023/10/21 05:01:34;;;;;;;5.28;0.80;;;17.70;96.70;;;;;;5095660;28;20050;-79
2023/10/21 05:04:02;;;;;;;5.13;0.60;;;17.70;96.70;;;;;;5098727;28;20060;-79
2023/10/21 05:06:30;;;;;;;5.88;0.90;;;17.70;96.70;;;;;;5055129;28;20051;-80
2023/10/21 05:09:00;;;;;;;2.92;0.82;;;17.60;96.70;;;;;;5103085;28;20044;-80
2023/10/21 05:11:28;;;;;;;5.80;1.38;;;17.60;96.70;;;;;;5092725;28;20248;-79
2023/10/21 05:13:56;;;;;;;5.32;1.20;;;17.50;96.70;;;;;;5091929;28;20044;-79
2023/10/21 05:16:25;;;;;;;2.78;0.55;;;17.50;96.70;;;;;;5086811;28;20051;-80
2023/10/21 05:18:53;;;;;;;6.32;0.85;;;17.50;96.70;;;;;;5093744;28;20100;-80
2023/10/21 05:21:21;;;;;;;2.95;0.80;;;17.50;96.70;;;;;;5098930;28;20130;-80
2023/10/21 05:23:49;;;;;;;4.28;0.88;;;17.50;96.70;;;;;;5096511;28;20111;-79
2023/10/21 05:26:19;;;;;;;3.63;0.70;;;17.50;96.70;;;;;;5093151;28;20100;-79
2023/10/21 05:28:48;;;;;;;2.97;0.80;;;17.50;96.70;;;;;;5100422;28;20509;-79
2023/10/21 05:31:16;;;;;;;4.97;0.45;;;17.40;96.70;;;;;;5097723;28;20099;-79
2023/10/21 05:34:07;;;;;;;1.98;0.50;;;17.50;96.70;;;;;;5089476;28;20032;-80
2023/10/21 05:36:35;;;;;;;3.03;0.80;;;17.50;96.70;;;;;;5082593;28;20051;-83
2023/10/21 05:39:04;;;;;;;7.72;1.30;;;17.50;96.70;;;;;;5087394;28;20355;-78
2023/10/21 05:41:35;;;;;;;6.05;1.17;;;17.50;96.70;;;;;;5088541;28;20409;-79
2023/10/21 05:44:03;;;;;;;2.78;0.63;;;17.40;96.70;;;;;;5091406;28;20115;-79
2023/10/21 05:46:31;;;;;;;3.45;0.68;;;17.50;96.70;;;;;;5089280;28;20066;-78
2023/10/21 05:49:00;;;;;;;3.45;0.73;;;17.40;96.70;;;;;;5097213;28;20679;-79
2023/10/21 05:51:28;;;;;;;1.48;0.50;;;17.40;96.70;;;;;;5090068;28;20078;-79
2023/10/21 05:53:57;;;;;;;2.10;0.70;;;17.40;96.70;;;;;;5094338;28;20431;-78
2023/10/21 05:56:26;;;;;;;5.22;1.27;;;17.50;96.70;;;;;;5090818;28;20139;-77
2023/10/21 05:58:55;;;;;;;6.72;0.88;;;17.40;96.70;;;;;;5090833;28;20562;-78
2023/10/21 06:01:24;;;;;;;3.83;0.60;;;17.40;96.70;;;;;;5090355;28;20048;-76
2023/10/21 06:03:52;;;;;;;3.72;0.85;;;17.40;96.70;;;;;;5094361;28;20097;-78
2023/10/21 06:06:22;;;;;;;9.30;1.13;;;17.40;96.70;;;;;;5086276;28;20113;-78
2023/10/21 06:08:50;;;;;;;5.50;0.75;;;17.40;96.70;;;;;;5093863;28;20039;-79
2023/10/21 06:11:18;;;;;;;3.92;0.93;;;17.40;96.70;;;;;;5096374;28;20511;-79
2023/10/21 06:13:48;;;;;;;3.42;0.77;;;17.40;96.70;;;;;;5074447;28;20048;-78
2023/10/21 06:16:17;;;;;;;3.83;0.68;;;17.40;96.70;;;;;;5092011;28;20123;-78
2023/10/21 06:18:46;;;;;;;6.00;0.90;;;17.40;96.70;;;;;;5097040;28;20147;-79
2023/10/21 06:21:14;;;;;;;4.72;0.70;;;17.40;96.70;;;;;;5089786;28;20048;-80
2023/10/21 06:23:42;;;;;;;4.93;0.82;;;17.40;96.70;;;;;;5089871;28;20493;-77
2023/10/21 06:26:11;;;;;;;5.28;0.80;;;17.50;96.70;;;;;;5090377;28;20112;-78
2023/10/21 06:28:39;;;;;;;4.03;1.25;;;17.50;96.70;;;;;;5103173;28;20488;-75
2023/10/21 06:31:07;;;;;;;4.82;1.00;;;17.60;96.70;;;;;;5078630;28;20529;-78
2023/10/21 06:33:37;;;;;;;5.97;1.05;;;17.60;96.70;;;;;;5105399;28;20047;-78
2023/10/21 06:36:06;;;;;;;3.55;1.00;;;17.60;96.70;;;;;;5087322;28;20056;-78
2023/10/21 06:38:34;;;;;;;6.68;1.13;;;17.60;96.70;;;;;;5105216;28;20100;-79
2023/10/21 06:41:03;;;;;;;4.80;1.33;;;17.60;96.70;;;;;;5091463;28;20421;-81
2023/10/21 06:43:41;;;;;;;3.33;1.05;;;17.70;96.70;;;;;;5081470;28;20923;-78
2023/10/21 06:46:10;;;;;;;3.08;0.68;;;17.70;96.70;;;;;;5086104;28;20036;-79
2023/10/21 06:48:40;;;;;;;5.18;1.10;;;17.80;96.70;;;;;;5091404;28;20044;-79
2023/10/21 06:51:08;;;;;;;3.95;0.98;;;17.80;96.70;;;;;;5069379;28;20881;-79
2023/10/21 06:53:36;;;;;;;5.15;1.58;;;17.90;96.70;;;;;;5084894;28;20188;-80
2023/10/21 06:56:10;;;;;;;7.30;1.20;;;17.90;96.70;;;;;;5090091;28;20067;-80
2023/10/21 06:58:39;;;;;;;5.43;1.00;;;17.90;96.70;;;;;;5094366;28;20047;-80
2023/10/21 07:01:07;;;;;;;19.27;14.93;;;17.90;96.70;;;;;;5089331;28;20559;-79
2023/10/21 07:03:36;;;;;;;9.57;4.95;;;17.90;96.70;;;;;;5098800;28;20047;-81
2023/10/21 07:06:06;;;;;;;8.02;3.17;;;17.90;96.70;;;;;;5077344;28;20036;-76
2023/10/21 07:08:35;;;;;;;7.43;3.22;;;18.00;96.70;;;;;;5102913;28;20048;-77
2023/10/21 07:11:04;;;;;;;6.97;3.20;;;18.00;96.70;;;;;;5073041;28;20078;-77
2023/10/21 07:13:32;;;;;;;8.48;2.53;;;18.00;96.70;;;;;;5095732;28;20051;-77
2023/10/21 07:16:06;;;;;;;6.57;2.50;;;18.10;96.70;;;;;;5100979;28;20048;-77
2023/10/21 07:18:34;;;;;;;7.80;2.20;;;18.20;96.70;;;;;;5101186;28;20054;-77
2023/10/21 07:21:03;;;;;;;5.20;1.85;;;18.10;96.70;;;;;;5087089;28;20572;-78
2023/10/21 07:23:33;;;;;;;5.78;1.45;;;18.20;96.70;;;;;;5085698;28;20044;-79
2023/10/21 07:26:02;;;;;;;9.52;1.98;;;18.20;96.70;;;;;;5103687;28;20659;-77
2023/10/21 07:28:31;;;;;;;3.63;1.60;;;18.20;96.70;;;;;;5087664;28;20093;-77
2023/10/21 07:31:00;;;;;;;8.85;2.30;;;18.20;96.70;;;;;;5100300;28;20039;-80
2023/10/21 07:33:29;;;;;;;6.63;1.35;;;18.30;96.70;;;;;;5105163;28;20043;-79
2023/10/21 07:35:57;;;;;;;8.20;1.40;;;18.30;96.70;;;;;;5103321;28;20067;-78
2023/10/21 07:38:25;;;;;;;3.72;1.30;;;18.30;96.70;;;;;;5103187;28;20044;-79
2023/10/21 07:40:56;;;;;;;4.68;2.00;;;18.30;96.70;;;;;;5102849;28;20040;-78
2023/10/21 07:43:24;;;;;;;3.78;1.00;;;18.30;96.70;;;;;;5097528;28;20079;-77
2023/10/21 07:45:52;;;;;;;4.85;1.23;;;18.40;96.70;;;;;;5067464;28;20052;-77
2023/10/21 07:48:21;;;;;;;8.40;2.13;;;18.40;96.70;;;;;;5088115;28;20051;-78
2023/10/21 07:50:53;;;;;;;5.82;1.88;;;18.40;96.70;;;;;;5093237;28;20439;-77
2023/10/21 07:53:22;;;;;;;7.53;2.50;;;18.50;96.70;;;;;;5092721;28;20059;-78
2023/10/21 07:55:50;;;;;;;8.10;2.90;;;18.50;96.70;;;;;;5083870;28;20118;-78
2023/10/21 07:58:20;;;;;;;8.70;2.83;;;18.60;96.70;;;;;;5093067;28;20520;-77
2023/10/21 08:00:48;;;;;;;9.30;2.90;;;18.70;96.70;;;;;;5099303;28;20051;-78
2023/10/21 08:03:17;;;;;;;8.25;3.25;;;18.70;96.70;;;;;;5093823;28;20093;-79
2023/10/21 08:05:45;;;;;;;7.53;2.88;;;18.70;96.70;;;;;;5087873;28;20084;-78
2023/10/21 08:08:14;;;;;;;8.30;2.80;;;18.70;96.70;;;;;;5100327;28;20392;-79
2023/10/21 08:10:42;;;;;;;9.48;3.22;;;18.70;96.70;;;;;;5094855;28;20047;-77
2023/10/21 08:13:10;;;;;;;15.30;3.40;;;18.80;96.70;;;;;;5090754;28;20131;-80
2023/10/21 08:15:40;;;;;;;8.40;2.88;;;18.90;96.70;;;;;;5090054;28;20047;-80
2023/10/21 08:18:08;;;;;;;7.32;2.70;;;19.00;96.70;;;;;;5085033;28;20138;-80
2023/10/21 08:20:37;;;;;;;6.90;4.53;;;19.00;96.70;;;;;;5075427;28;21197;-78
2023/10/21 08:23:07;;;;;;;33.28;27.85;;;19.10;96.70;;;;;;5093264;28;20507;-80
2023/10/21 08:25:36;;;;;;;9.63;6.53;;;19.20;96.70;;;;;;5073050;28;20484;-80
2023/10/21 08:28:05;;;;;;;11.10;6.57;;;19.20;96.70;;;;;;5100374;28;20043;-80
2023/10/21 08:31:00;;;;;;;10.70;3.80;;;19.30;96.70;;;;;;5406182;22;20035;-85
2023/10/21 08:33:29;;;;;;;8.05;3.85;;;19.40;96.70;;;;;;4985619;28;20053;-83
2023/10/21 08:35:57;;;;;;;7.10;2.88;;;19.50;96.70;;;;;;4976162;28;20154;-84
2023/10/21 08:38:25;;;;;;;8.88;3.40;;;19.60;96.70;;;;;;4954509;28;20626;-84
2023/10/21 08:40:53;;;;;;;7.38;1.90;;;19.70;96.70;;;;;;4954837;28;20081;-83
2023/10/21 08:43:22;;;;;;;8.32;2.65;;;19.70;96.70;;;;;;4937951;28;20047;-83
2023/10/21 08:45:52;;;;;;;8.80;2.90;;;19.80;96.70;;;;;;4956926;28;20070;-85
2023/10/21 08:48:23;;;;;;;5.05;2.72;;;19.80;96.70;;;;;;4964140;28;20086;-87
2023/10/21 08:50:52;;;;;;;6.45;2.17;;;19.90;96.70;;;;;;4944932;28;20097;-84
2023/10/21 08:53:20;;;;;;;8.60;3.00;;;20.00;96.70;;;;;;4966168;28;20042;-85
2023/10/21 08:55:49;;;;;;;7.55;2.08;;;20.10;96.70;;;;;;4966504;28;20146;-84
2023/10/21 08:58:17;;;;;;;5.00;1.58;;;20.20;96.70;;;;;;4957387;28;20043;-83
2023/10/21 09:00:45;;;;;;;6.32;1.98;;;20.20;96.70;;;;;;4948178;28;21576;-82
2023/10/21 09:03:14;;;;;;;5.75;1.70;;;20.30;96.70;;;;;;4950264;28;20050;-82
2023/10/21 09:06:04;;;;;;;8.32;2.17;;;20.40;96.70;;;;;;4956273;28;20050;-81
2023/10/21 09:08:33;;;;;;;9.88;2.65;;;20.40;96.70;;;;;;4965062;28;20058;-81
2023/10/21 09:11:06;;;;;;;6.63;2.00;;;20.60;96.70;;;;;;4950308;28;20047;-82
2023/10/21 09:13:35;;;;;;;8.77;3.00;;;20.60;96.70;;;;;;4961353;28;20055;-81
2023/10/21 09:16:04;;;;;;;7.65;2.22;;;20.70;96.70;;;;;;4963092;28;20641;-80
2023/10/21 09:18:37;;;;;;;6.68;3.08;;;20.80;96.70;;;;;;4957750;28;20504;-82
2023/10/21 09:21:07;;;;;;;8.48;2.85;;;20.90;96.70;;;;;;4973746;28;20042;-80
2023/10/21 09:23:50;;;;;;;10.27;5.43;;;21.00;96.70;;;;;;4962682;28;20071;-81
2023/10/21 09:26:19;;;;;;;9.95;4.75;;;21.10;96.70;;;;;;4963055;28;20055;-81
2023/10/21 09:28:47;;;;;;;9.88;3.75;;;21.20;96.70;;;;;;4950646;28;20046;-83
2023/10/21 09:31:17;;;;;;;9.77;3.22;;;21.30;96.70;;;;;;4966924;28;20082;-84
2023/10/21 09:33:54;;;;;;;7.22;2.67;;;21.40;96.70;;;;;;5008610;28;20108;-84
2023/10/21 09:36:24;;;;;;;11.63;3.33;;;21.50;96.70;;;;;;5013573;28;20042;-83
2023/10/21 09:38:54;;;;;;;9.02;2.85;;;21.50;96.70;;;;;;4991378;28;20045;-84
2023/10/21 09:41:23;;;;;;;11.93;2.38;;;21.50;96.70;;;;;;4992315;28;20045;-84
2023/10/21 09:43:53;;;;;;;6.57;2.83;;;21.70;96.70;;;;;;5008856;28;20034;-83
2023/10/21 09:46:25;;;;;;;10.30;1.85;;;21.80;96.70;;;;;;5007620;28;20475;-85
2023/10/21 09:48:58;;;;;;;5.93;1.88;;;21.90;96.70;;;;;;5011721;28;20046;-86
2023/10/21 09:51:32;;;;;;;8.80;2.33;;;21.80;96.70;;;;;;5006352;28;20593;-85
2023/10/21 09:54:06;;;;;;;7.57;1.88;;;21.90;96.70;;;;;;5006729;28;20052;-82
2023/10/21 09:56:35;;;;;;;7.70;1.95;;;22.10;96.70;;;;;;5005706;28;20053;-85
2023/10/21 09:59:05;;;;;;;7.45;2.38;;;22.00;96.70;;;;;;5008470;28;20156;-83
2023/10/21 10:01:39;;;;;;;6.10;2.15;;;22.00;96.70;;;;;;5013861;28;20049;-86
2023/10/21 10:04:10;;;;;;;5.60;2.10;;;22.10;96.70;;;;;;5009091;28;20042;-86
2023/10/21 10:06:41;;;;;;;6.93;2.13;;;22.20;96.70;;;;;;5010143;28;20212;-87
2023/10/21 10:09:12;;;;;;;10.23;2.17;;;22.30;96.70;;;;;;5018387;28;20045;-84
2023/10/21 10:11:42;;;;;;;6.93;2.35;;;22.30;96.70;;;;;;5014076;28;20046;-83
2023/10/21 10:14:11;;;;;;;7.82;1.65;;;22.40;96.70;;;;;;5015968;28;20046;-86
2023/10/21 10:16:44;;;;;;;7.53;1.65;;;22.60;96.70;;;;;;5004262;28;20077;-84
2023/10/21 10:19:14;;;;;;;7.60;2.42;;;22.80;96.70;;;;;;4992859;28;20145;-86
2023/10/21 10:21:45;;;;;;;7.07;1.67;;;22.70;96.70;;;;;;5002703;28;20061;-84
2023/10/21 10:24:16;;;;;;;10.25;1.85;;;22.50;96.70;;;;;;5007197;28;20045;-84
2023/10/21 10:26:44;;;;;;;7.63;2.30;;;22.50;96.70;;;;;;5008769;28;20630;-85
2023/10/21 10:29:19;;;;;;;6.90;2.22;;;22.40;96.70;;;;;;5001173;28;20093;-82
2023/10/21 10:31:48;;;;;;;6.05;1.58;;;22.30;96.70;;;;;;5008645;28;20058;-82
2023/10/21 10:34:17;;;;;;;8.43;1.77;;;22.20;96.70;;;;;;5013500;28;20144;-83
2023/10/21 10:36:47;;;;;;;6.22;1.90;;;22.20;96.70;;;;;;5011481;28;20497;-82
2023/10/21 10:39:39;;;;;;;8.88;2.33;;;22.10;96.70;;;;;;5010773;28;20088;-84
2023/10/21 10:42:10;;;;;;;8.10;4.45;;;22.00;96.70;;;;;;5006348;28;20060;-82
2023/10/21 10:44:39;;;;;;;14.52;3.25;;;21.90;96.70;;;;;;5008143;28;20100;-84
2023/10/21 10:47:09;;;;;;;11.85;2.50;;;21.90;96.70;;;;;;5008751;28;20072;-84
2023/10/21 10:49:56;;;;;;;14.95;3.95;;;21.60;96.70;;;;;;5013139;28;20427;-83
2023/10/21 10:52:33;;;;;;;11.57;2.75;;;21.30;96.70;;;;;;5011086;28;20045;-81
2023/10/21 10:55:08;;;;;;;15.20;2.75;;;21.10;96.70;;;;;;5007555;28;20091;-82
2023/10/21 10:57:37;;;;;;;11.15;2.83;;;21.00;96.70;;;;;;5010480;28;20054;-82
2023/10/21 11:00:41;;;;;;;11.05;2.80;;;20.90;96.70;;;;;;5014219;28;20056;-81
2023/10/21 11:03:09;;;;;;;6.40;2.10;;;20.80;96.70;;;;;;4967089;28;20058;-82
2023/10/21 11:05:38;;;;;;;10.02;2.20;;;20.70;96.70;;;;;;5006358;28;20041;-82
2023/10/21 11:08:09;;;;;;;15.52;4.20;;;20.60;96.70;;;;;;5008182;28;20052;-82
2023/10/21 11:10:37;;;;;;;12.63;3.22;;;20.60;96.70;;;;;;5015053;28;20058;-82
2023/10/21 11:13:05;;;;;;;8.07;2.00;;;20.50;96.70;;;;;;5007245;28;20046;-81
2023/10/21 11:15:40;;;;;;;6.68;1.55;;;20.30;96.70;;;;;;5006194;28;20070;-80
2023/10/21 11:18:09;;;;;;;5.68;1.35;;;20.10;96.70;;;;;;5006564;28;20406;-83
2023/10/21 11:20:47;;;;;;;6.57;1.10;;;19.30;96.70;;;;;;5019004;28;20438;-79
2023/10/21 11:23:20;;;;;;;4.30;1.20;;;18.10;96.70;;;;;;5023664;28;20504;-80
2023/10/21 11:26:07;;;;;;;4.20;0.88;;;17.60;96.70;;;;;;4985721;28;20135;-80
2023/10/21 11:28:37;;;;;;;2.50;0.70;;;16.80;96.70;;;;;;5007818;28;20570;-80
2023/10/21 11:31:09;;;;;;;2.30;0.70;;;16.60;96.70;;;;;;5015331;28;20053;-80
2023/10/21 11:33:48;;;;;;;5.70;1.00;;;16.60;96.70;;;;;;4977710;28;20054;-80
2023/10/21 11:36:17;;;;;;;10.45;1.50;;;16.70;96.70;;;;;;4979604;28;20074;-83
2023/10/21 11:38:51;;;;;;;7.38;1.55;;;16.50;96.70;;;;;;4989464;28;20120;-82
2023/10/21 11:41:23;;;;;;;9.52;1.50;;;16.40;96.70;;;;;;4961030;28;20200;-78
2023/10/21 11:43:52;;;;;;;5.88;1.23;;;16.50;96.70;;;;;;4988741;28;20042;-78
2023/10/21 11:46:21;;;;;;;4.22;1.38;;;16.50;96.70;;;;;;4993617;28;20585;-79
2023/10/21 11:48:50;;;;;;;4.78;1.25;;;16.60;96.70;;;;;;4991693;28;20112;-78
2023/10/21 11:51:18;;;;;;;3.63;0.90;;;16.70;96.70;;;;;;4994635;28;20062;-78
2023/10/21 11:53:50;;;;;;;2.08;0.98;;;16.70;96.70;;;;;;5002148;28;20495;-78
2023/10/21 12:45:47;;;;;;;1.95;0.43;;;17.70;96.70;;;;;;4997286;28;20196;-80
2023/10/21 12:48:19;;;;;;;0.85;0.30;;;17.70;96.70;;;;;;5000124;28;20038;-79
2023/10/21 12:50:49;;;;;;;1.35;0.43;;;17.80;96.70;;;;;;4996780;28;20037;-79
2023/10/21 12:53:19;;;;;;;1.73;0.30;;;17.80;96.70;;;;;;4983500;28;20927;-79
2023/10/21 12:55:47;;;;;;;0.65;0.30;;;17.80;96.70;;;;;;5003043;28;20044;-80
2023/10/21 12:58:17;;;;;;;2.20;0.47;;;17.80;96.70;;;;;;4997172;28;20050;-78
2023/10/21 13:00:45;;;;;;;1.80;0.40;;;17.90;96.70;;;;;;4998353;28;20057;-78
2023/10/21 13:03:13;;;;;;;2.08;0.28;;;18.00;96.70;;;;;;4996758;28;20038;-78
2023/10/21 13:05:46;;;;;;;2.90;0.30;;;18.10;96.70;;;;;;4981522;28;20687;-80
2023/10/21 13:08:15;;;;;;;1.95;0.40;;;18.00;96.70;;;;;;4995556;28;20045;-80
2023/10/21 13:10:43;;;;;;;3.30;0.73;;;18.10;96.70;;;;;;4995565;28;20630;-80
2023/10/21 13:13:12;;;;;;;2.10;0.43;;;18.10;96.70;;;;;;4999746;28;20046;-80
2023/10/21 13:15:43;;;;;;;2.95;0.40;;;18.00;96.70;;;;;;4998881;28;20030;-80
2023/10/21 13:18:11;;;;;;;0.77;0.38;;;18.00;96.70;;;;;;4993334;28;20054;-81
2023/10/21 13:20:40;;;;;;;0.88;0.30;;;18.10;96.70;;;;;;5014115;28;20045;-81
2023/10/21 13:23:08;;;;;;;35.83;31.73;;;18.20;96.70;;;;;;5004854;28;20503;-87
2023/10/21 13:25:38;;;;;;;5.72;4.22;;;18.20;96.70;;;;;;4989068;28;20046;-82
2023/10/21 13:28:06;;;;;;;4.47;3.42;;;18.10;96.70;;;;;;5006547;28;20091;-82
2023/10/21 13:30:34;;;;;;;2.85;2.28;;;18.20;96.70;;;;;;5005987;28;20064;-82
2023/10/21 13:33:06;;;;;;;2.65;1.77;;;18.20;96.70;;;;;;5010190;28;20064;-82
2023/10/21 13:35:35;;;;;;;1.85;1.17;;;18.20;96.70;;;;;;5004506;28;20045;-81
2023/10/21 13:38:04;;;;;;;2.33;0.95;;;18.20;96.70;;;;;;5001326;28;20136;-80
2023/10/21 13:40:32;;;;;;;1.77;0.45;;;18.30;96.70;;;;;;5000702;28;20049;-80
2023/10/21 13:43:03;;;;;;;1.20;0.47;;;18.20;96.70;;;;;;5006325;28;20396;-80
2023/10/21 13:45:32;;;;;;;1.58;0.52;;;18.20;96.70;;;;;;5002257;28;20510;-80
2023/10/21 13:48:08;;;;;;;0.98;0.32;;;18.10;96.70;;;;;;4988177;28;20046;-79